D/T METAR WX W/DIR W/SPE G/SPE TEMP DEWP
8/12/19 00:50 EGAC 080050Z AUTO 24015KT 9999 BKN029/// BKN041/// 10/07 Q0988 WSW (240°) 17.3mph 10°C 7°C
7/12/19 23:50 EGAC 072350Z AUTO 25014G24KT 9999 -RA NCD 10/07 Q0988 -RA WSW (250°) 16.1mph 27.6mph 10°C 7°C
7/12/19 23:20 EGAC 072320Z AUTO 26021G34KT 9999 -RA SCT013/// BKN028/// BKN048/// 11/08 Q0988 RERA REDZ -RA W (260°) 24.2mph 39.1mph 11°C 8°C
7/12/19 22:50 EGAC 072250Z AUTO 22019KT 5000 -RADZ BKN011/// OVC029/// 11/10 Q0987 -RA -DZ SW (220°) 21.9mph 11°C 10°C
7/12/19 22:20 EGAC 072220Z AUTO 21021G32KT 9999 -RA BKN013/// BKN018/// OVC024/// 11/10 Q0987 -RA SSW (210°) 24.2mph 36.8mph 11°C 10°C
7/12/19 21:50 EGAC 072150Z AUTO 21024KT 9999 OVC014/// 11/10 Q0988 SSW (210°) 27.6mph 11°C 10°C
7/12/19 21:20 EGAC 072120Z AUTO 20022KT 9999 -RA BKN015/// OVC027/// 11/10 Q0989 RERA -RA SSW (200°) 25.3mph 11°C 10°C
7/12/19 20:50 EGAC 072050Z AUTO 20022KT 5000 -RA BKN015/// OVC027/// 11/09 Q0990 RERA -RA SSW (200°) 25.3mph 11°C 9°C
7/12/19 20:20 EGAC 072020Z AUTO 20023KT 9999 -RA BKN016/// OVC022/// 12/09 Q0991 -RA SSW (200°) 26.5mph 12°C 9°C
7/12/19 19:50 EGAC 071950Z AUTO 20022KT 9999 OVC017/// 12/09 Q0992 SSW (200°) 25.3mph 12°C 9°C
7/12/19 19:20 EGAC 071920Z AUTO 20021KT 9999 OVC019/// 12/09 Q0993 SSW (200°) 24.2mph 12°C 9°C
7/12/19 18:50 EGAC 071850Z AUTO 20018KT 9999 SCT022/// BKN027/// 11/09 Q0994 SSW (200°) 20.7mph 11°C 9°C
7/12/19 18:20 EGAC 071820Z AUTO 20019KT 9999 NCD 11/09 Q0996 SSW (200°) 21.9mph 11°C 9°C
7/12/19 17:50 EGAC 071750Z AUTO 20018KT 9999 NCD 11/09 Q0997 SSW (200°) 20.7mph 11°C 9°C
7/12/19 17:20 EGAC 071720Z AUTO 20017KT 9999 NCD 11/09 Q0998 SSW (200°) 19.6mph 11°C 9°C
7/12/19 16:50 EGAC 071650Z AUTO 20018KT 9999 NCD 11/09 Q0998 SSW (200°) 20.7mph 11°C 9°C
7/12/19 16:20 EGAC 071620Z AUTO 20014KT 9999 SCT017/// SCT021/// 11/09 Q0999 SSW (200°) 16.1mph 11°C 9°C
7/12/19 15:50 EGAC 071550Z AUTO 20016KT 9999 BKN015/// OVC020/// 11/09 Q1000 SSW (200°) 18.4mph 11°C 9°C
7/12/19 15:20 EGAC 071520Z AUTO 20016KT 9999 OVC015/// 12/10 Q1001 SSW (200°) 18.4mph 12°C 10°C
7/12/19 14:50 EGAC 071450Z AUTO 20016KT 9999 BKN015/// OVC020/// 11/09 Q1001 SSW (200°) 18.4mph 11°C 9°C
7/12/19 14:20 EGAC 071420Z AUTO 19014KT 9999 OVC014/// 11/09 Q1002 S (190°) 16.1mph 11°C 9°C
7/12/19 13:50 EGAC 071350Z AUTO 20014KT 9999 OVC013/// 11/09 Q1002 SSW (200°) 16.1mph 11°C 9°C
7/12/19 13:20 EGAC 071320Z AUTO 20014KT 9999 BKN013/// OVC018/// 11/09 Q1003 SSW (200°) 16.1mph 11°C 9°C
7/12/19 12:50 EGAC 071250Z AUTO 20014KT 9999 OVC012/// 10/09 Q1003 SSW (200°) 16.1mph 10°C 9°C
7/12/19 12:20 EGAC 071220Z AUTO 21015KT 9999 OVC011/// 10/09 Q1004 SSW (210°) 17.3mph 10°C 9°C
7/12/19 11:50 EGAC 071150Z AUTO 20016KT 9999 BKN011/// BKN038/// 10/08 Q1004 SSW (200°) 18.4mph 10°C 8°C
7/12/19 11:20 EGAC 071120Z AUTO 21016KT 9999 FEW010/// SCT029/// BKN046/// 09/08 Q1005 SSW (210°) 18.4mph 9°C 8°C
7/12/19 10:50 EGAC 071050Z AUTO 21017KT 9999 BKN010/// BKN026/// 09/08 Q1005 SSW (210°) 19.6mph 9°C 8°C
7/12/19 10:20 EGAC 071020Z AUTO 22013KT 9999 NCD 09/08 Q1006 SW (220°) 15.0mph 9°C 8°C
7/12/19 09:50 EGAC 070950Z AUTO 22015KT 9999 -RA FEW040/// SCT049/// 09/07 Q1006 -RA SW (220°) 17.3mph 9°C 7°C
7/12/19 09:20 EGAC 070920Z AUTO 22016KT 9999 NCD 08/07 Q1007 SW (220°) 18.4mph 8°C 7°C
7/12/19 08:50 EGAC 070850Z AUTO 22015KT 9999 NCD 08/07 Q1007 SW (220°) 17.3mph 8°C 7°C
7/12/19 08:20 EGAC 070820Z AUTO 22015KT 9999 FEW046/// 08/07 Q1007 SW (220°) 17.3mph 8°C 7°C
7/12/19 07:50 EGAC 070750Z AUTO 23014KT 9999 SCT011/// 08/07 Q1007 SW (230°) 16.1mph 8°C 7°C
7/12/19 07:20 EGAC 070720Z AUTO 23013KT 9999 OVC011/// 08/07 Q1007 SW (230°) 15.0mph 8°C 7°C
7/12/19 06:50 EGAC 070650Z AUTO 23011KT 9999 BKN012/// BKN017/// 08/06 Q1007 SW (230°) 12.7mph 8°C 6°C
7/12/19 06:20 EGAC 070620Z AUTO 23012KT 9999 SCT015/// 07/06 Q1007 SW (230°) 13.8mph 7°C 6°C
7/12/19 05:50 EGAC 070550Z AUTO 23011KT 9999 BKN011/// OVC016/// 07/06 Q1008 SW (230°) 12.7mph 7°C 6°C
7/12/19 05:20 EGAC 070520Z AUTO 23012KT 9999 BKN014/// 08/06 Q1008 SW (230°) 13.8mph 8°C 6°C
7/12/19 04:50 EGAC 070450Z AUTO 22011KT 9999 BKN015/// 08/06 Q1008 SW (220°) 12.7mph 8°C 6°C
7/12/19 04:20 EGAC 070420Z AUTO 22011KT 9999 -RA BKN012/// BKN021/// 08/07 Q1008 -RA SW (220°) 12.7mph 8°C 7°C
7/12/19 03:50 EGAC 070350Z AUTO 22011KT 9999 BKN011/// OVC018/// 08/07 Q1007 SW (220°) 12.7mph 8°C 7°C
7/12/19 03:20 EGAC 070320Z AUTO 22010KT 9999 BKN011/// 08/07 Q1008 SW (220°) 11.5mph 8°C 7°C
7/12/19 02:50 EGAC 070250Z AUTO 22011KT 9999 SCT013/// BKN017/// 08/07 Q1007 SW (220°) 12.7mph 8°C 7°C
7/12/19 02:20 EGAC 070220Z AUTO 22012KT 9999 BKN015/// BKN019/// 08/07 Q1007 SW (220°) 13.8mph 8°C 7°C
7/12/19 01:50 EGAC 070150Z AUTO 22009KT 9999 BKN018/// 08/06 Q1007 SW (220°) 10.4mph 8°C 6°C
7/12/19 01:20 EGAC 070120Z AUTO 22009KT 9999 BKN016/// BKN022/// OVC046/// 08/07 Q1007 SW (220°) 10.4mph 8°C 7°C
7/12/19 00:20 EGAC 070020Z AUTO 24006KT 200V260 9999 FEW017/// BKN024/// BKN028/// 08/07 Q1006 WSW (240°) 6.9mph 8°C 7°C